Time;durP1;ratioP1;P1;durP2;ratioP2;P2;SDS_P1;SDS_P2;PMS_P1;PMS_P2;Temp;Humidity;BMP_temperature;BMP_pressure;BME280_temperature;BME280_humidity;BME280_pressure;Samples;Min_cycle;Max_cycle;Signal;HPM_P1;HPM_P2
2022/03/23 00:00:05;;;;;;;22.15;12.93;;;6.00;81.70;;;;;;6161778;23;20052;-84
2022/03/23 00:02:38;;;;;;;20.77;11.60;;;6.00;81.50;;;;;;6139178;23;20117;-86
2022/03/23 00:05:04;;;;;;;19.20;9.70;;;5.90;80.60;;;;;;6138532;23;20060;-85
2022/03/23 00:07:30;;;;;;;17.70;10.40;;;5.80;78.30;;;;;;6163206;23;20001;-85
2022/03/23 00:13:49;;;;;;;15.45;8.80;;;5.80;78.20;;;;;;6162931;23;20066;-83
2022/03/23 00:16:17;;;;;;;15.00;8.98;;;5.70;78.30;;;;;;6107427;23;20037;-85
2022/03/23 00:19:11;;;;;;;15.18;9.60;;;5.60;78.20;;;;;;6108168;23;20021;-85
2022/03/23 00:21:37;;;;;;;15.98;9.48;;;5.50;78.20;;;;;;6108276;23;20320;-83
2022/03/23 00:24:03;;;;;;;15.50;8.98;;;5.50;78.30;;;;;;6085226;23;19998;-82
2022/03/23 00:26:50;;;;;;;14.52;8.55;;;5.50;78.10;;;;;;6109438;23;20002;-80
2022/03/23 00:29:50;;;;;;;15.43;9.00;;;5.50;78.50;;;;;;6087654;23;20360;-82
2022/03/23 00:32:16;;;;;;;17.38;8.82;;;5.50;78.50;;;;;;6084154;23;20021;-84
2022/03/23 00:34:42;;;;;;;15.48;9.50;;;5.40;78.60;;;;;;6103861;23;20057;-81
2022/03/23 00:37:08;;;;;;;15.75;8.75;;;5.40;78.50;;;;;;6104319;23;20237;-84
2022/03/23 00:39:36;;;;;;;15.13;8.73;;;5.40;78.70;;;;;;6079919;23;20022;-83
2022/03/23 00:42:20;;;;;;;14.43;8.57;;;5.40;78.80;;;;;;6104164;23;20010;-82
2022/03/23 00:44:46;;;;;;;17.13;9.48;;;5.40;79.10;;;;;;6079765;23;20346;-82
2022/03/23 00:47:14;;;;;;;18.48;9.98;;;5.30;79.70;;;;;;6117615;23;20331;-81
2022/03/23 00:49:40;;;;;;;16.33;9.25;;;5.30;80.00;;;;;;6132617;23;20010;-84
2022/03/23 00:52:06;;;;;;;14.65;9.50;;;5.30;79.70;;;;;;6133671;23;20039;-87
2022/03/23 00:54:36;;;;;;;17.33;9.88;;;5.30;79.50;;;;;;6133216;23;19994;-84
2022/03/23 00:57:04;;;;;;;15.00;9.38;;;5.30;79.10;;;;;;6108594;23;20098;-82
2022/03/23 00:59:30;;;;;;;14.80;9.43;;;5.30;79.50;;;;;;6108682;23;20005;-84
2022/03/23 06:03:41;;;;;;;30.52;16.40;;;3.30;90.70;;;;;;6188638;22;20028;-84
2022/03/23 06:06:09;;;;;;;26.45;15.70;;;3.30;90.90;;;;;;6192046;23;20005;-80
2022/03/23 06:09:12;;;;;;;30.35;15.93;;;3.40;90.30;;;;;;6144587;23;20015;-83
2022/03/23 06:11:40;;;;;;;25.25;14.15;;;3.40;90.10;;;;;;6168376;23;20005;-82
2022/03/23 06:14:06;;;;;;;25.17;14.55;;;3.60;90.20;;;;;;6194320;23;20071;-82
2022/03/23 06:16:32;;;;;;;26.27;15.05;;;3.70;90.10;;;;;;6143449;23;20059;-82
2022/03/23 06:19:01;;;;;;;27.17;15.65;;;3.80;89.90;;;;;;6149178;23;20024;-82
2022/03/23 06:21:28;;;;;;;24.73;14.98;;;4.00;89.50;;;;;;6143807;23;19997;-81
2022/03/23 06:23:54;;;;;;;25.27;15.45;;;4.10;89.00;;;;;;6168354;23;20052;-81
2022/03/23 06:26:20;;;;;;;25.17;15.68;;;4.10;88.50;;;;;;6144264;23;20071;-79
2022/03/23 06:28:46;;;;;;;26.88;15.65;;;4.20;88.80;;;;;;6143872;23;20005;-81
2022/03/23 06:31:11;;;;;;;30.63;16.63;;;4.20;88.80;;;;;;6191940;23;20013;-83
2022/03/23 06:33:40;;;;;;;31.08;16.48;;;4.30;88.50;;;;;;6146727;23;20032;-79
2022/03/23 06:36:06;;;;;;;28.67;16.85;;;4.40;88.10;;;;;;6205439;23;20016;-79
2022/03/23 06:38:32;;;;;;;28.27;16.30;;;4.50;87.90;;;;;;6207522;23;20001;-82
2022/03/23 06:40:57;;;;;;;30.75;16.00;;;4.60;88.00;;;;;;6160091;23;20013;-82
2022/03/23 06:46:23;;;;;;;28.25;15.80;;;4.90;87.70;;;;;;6209075;23;20020;-81
2022/03/23 06:48:49;;;;;;;;;;;4.90;86.80;;;;;;6225468;23;20269;-81
2022/03/23 06:51:36;;;;;;;26.15;16.05;;;5.10;86.40;;;;;;6200111;23;19950;-81
2022/03/23 06:54:19;;;;;;;27.90;16.38;;;5.20;85.80;;;;;;6198576;23;20012;-81
2022/03/23 06:57:04;;;;;;;;;;;;;;;;;;;;;
2022/03/23 07:00:42;;;;;;;27.52;16.52;;;5.40;85.00;;;;;;6225687;23;20055;-80
2022/03/23 07:03:08;;;;;;;30.45;16.58;;;5.60;84.60;;;;;;6223337;23;20009;-83
2022/03/23 07:05:35;;;;;;;27.48;16.17;;;5.60;84.20;;;;;;6226731;23;19984;-79
2022/03/23 07:11:13;;;;;;;25.40;15.90;;;5.70;83.70;;;;;;6225575;23;20008;-80
2022/03/23 07:13:39;;;;;;;25.25;16.05;;;5.60;83.70;;;;;;6225551;23;20009;-80
2022/03/23 07:16:05;;;;;;;28.92;16.80;;;5.60;83.80;;;;;;6250287;23;20020;-81
2022/03/23 07:18:31;;;;;;;25.92;16.20;;;5.60;83.90;;;;;;6226980;23;20004;-83
2022/03/23 07:20:56;;;;;;;26.33;16.05;;;5.70;83.90;;;;;;6225216;23;20008;-81
2022/03/23 07:23:22;;;;;;;28.02;15.88;;;5.90;83.70;;;;;;6224763;23;20005;-83
2022/03/23 07:25:48;;;;;;;25.85;15.85;;;6.00;82.50;;;;;;6250496;23;19995;-81
2022/03/23 07:28:14;;;;;;;25.73;15.68;;;6.10;82.40;;;;;;6250152;23;20190;-78
2022/03/23 07:30:40;;;;;;;24.55;15.55;;;6.10;81.70;;;;;;6223652;23;20012;-81
2022/03/23 07:33:08;;;;;;;25.08;15.35;;;6.30;82.30;;;;;;6225141;23;20008;-79
2022/03/23 07:35:33;;;;;;;28.38;16.10;;;6.40;81.20;;;;;;6225025;23;20008;-80
2022/03/23 07:37:59;;;;;;;25.02;15.32;;;6.50;80.90;;;;;;6250421;23;19996;-80
2022/03/23 07:40:25;;;;;;;25.10;15.27;;;6.60;80.00;;;;;;6250223;23;20226;-78
2022/03/23 07:42:51;;;;;;;27.08;15.93;;;6.60;79.80;;;;;;6226209;23;20009;-80
2022/03/23 07:45:17;;;;;;;31.33;15.90;;;6.60;80.10;;;;;;6249229;23;20012;-79
2022/03/23 07:47:44;;;;;;;29.48;16.75;;;6.80;80.20;;;;;;6226414;23;20095;-78
2022/03/23 07:50:10;;;;;;;27.15;15.55;;;6.90;79.10;;;;;;6223792;23;20251;-80
2022/03/23 07:52:36;;;;;;;24.88;15.75;;;7.00;79.20;;;;;;6224427;23;20000;-80
2022/03/23 07:55:02;;;;;;;27.92;16.23;;;7.00;79.90;;;;;;6224609;23;20289;-80
2022/03/23 07:57:34;;;;;;;27.65;15.93;;;7.20;78.80;;;;;;6224804;23;20133;-82
2022/03/23 08:00:07;;;;;;;30.75;15.85;;;7.40;78.30;;;;;;6225303;23;20217;-82
2022/03/23 08:02:38;;;;;;;24.45;15.65;;;7.50;77.80;;;;;;6225330;23;20306;-84
2022/03/23 08:05:11;;;;;;;29.15;16.80;;;7.70;77.20;;;;;;6224063;23;20059;-81
2022/03/23 08:07:45;;;;;;;26.77;16.77;;;7.70;77.00;;;;;;6224423;23;20265;-82
2022/03/23 08:10:44;;;;;;;27.85;15.93;;;7.90;77.30;;;;;;6223774;23;20058;-83
2022/03/23 08:13:10;;;;;;;;;;;8.10;76.50;;;;;;6200868;23;20056;-84
2022/03/23 08:15:37;;;;;;;25.40;16.42;;;8.20;76.00;;;;;;6223750;23;19907;-82
2022/03/23 08:18:03;;;;;;;27.58;16.20;;;8.30;75.60;;;;;;6224032;23;20028;-84
2022/03/23 08:20:32;;;;;;;29.13;17.20;;;8.40;75.70;;;;;;6227247;23;19992;-83
2022/03/23 08:23:03;;;;;;;27.13;16.63;;;8.50;75.00;;;;;;6227383;23;20000;-82
2022/03/23 08:25:29;;;;;;;28.25;17.23;;;8.50;75.00;;;;;;6224972;23;20238;-83
2022/03/23 08:27:55;;;;;;;25.48;15.20;;;8.60;75.10;;;;;;6249515;23;20008;-83
2022/03/23 08:30:22;;;;;;;29.23;15.77;;;8.80;75.20;;;;;;6223000;23;20314;-82
2022/03/23 08:32:48;;;;;;;25.60;15.90;;;9.00;74.50;;;;;;6223228;23;20024;-85
2022/03/23 08:35:13;;;;;;;29.88;17.35;;;9.30;74.30;;;;;;6223429;23;20230;-83
2022/03/23 08:37:39;;;;;;;27.10;17.45;;;9.40;73.50;;;;;;6223556;23;20023;-84
2022/03/23 08:40:06;;;;;;;26.27;16.52;;;9.60;72.80;;;;;;6225225;23;20020;-82
2022/03/23 08:42:31;;;;;;;25.00;16.70;;;9.80;72.60;;;;;;6223680;23;20011;-84
2022/03/23 08:44:57;;;;;;;30.60;18.25;;;9.90;72.20;;;;;;6219594;23;20000;-80
2022/03/23 08:47:23;;;;;;;28.05;17.25;;;9.90;71.60;;;;;;6224717;23;20019;-79
2022/03/23 08:49:49;;;;;;;26.95;17.13;;;10.00;71.60;;;;;;6225708;23;20004;-79
2022/03/23 08:52:16;;;;;;;26.45;16.45;;;10.20;71.40;;;;;;6198505;23;20175;-84
2022/03/23 08:54:42;;;;;;;28.55;17.25;;;10.10;71.10;;;;;;6224621;23;19993;-84
2022/03/23 08:57:08;;;;;;;27.35;17.77;;;10.20;71.20;;;;;;6224680;23;20027;-82
2022/03/23 08:59:34;;;;;;;28.08;16.73;;;10.40;70.80;;;;;;6225515;23;19989;-80
2022/03/23 09:01:59;;;;;;;26.55;17.10;;;10.50;70.70;;;;;;6222819;23;20314;-80
2022/03/23 09:04:25;;;;;;;26.95;17.48;;;10.60;70.20;;;;;;6224647;23;20230;-81
2022/03/23 09:06:51;;;;;;;26.38;16.80;;;10.80;70.10;;;;;;6198936;23;20210;-83
2022/03/23 09:09:16;;;;;;;29.02;16.80;;;10.90;69.50;;;;;;6224763;23;20018;-83
2022/03/23 09:11:43;;;;;;;28.73;17.50;;;11.00;69.40;;;;;;6223485;23;20005;-84
2022/03/23 09:14:13;;;;;;;26.73;16.77;;;11.20;69.20;;;;;;6198588;23;20004;-83
2022/03/23 09:19:50;;;;;;;26.17;16.35;;;11.30;67.10;;;;;;6225083;23;20324;-85
2022/03/23 09:22:16;;;;;;;25.55;17.25;;;11.40;67.60;;;;;;6223849;23;20009;-81
2022/03/23 09:24:41;;;;;;;30.42;17.55;;;11.50;67.00;;;;;;6224825;23;20000;-82
2022/03/23 09:27:07;;;;;;;34.13;19.42;;;11.70;67.10;;;;;;6201057;23;20005;-83
2022/03/23 09:29:58;;;;;;;31.35;17.52;;;11.90;67.10;;;;;;6173168;23;20179;-81
2022/03/23 09:35:40;;;;;;;30.15;18.30;;;12.10;66.20;;;;;;6165777;23;20225;-83
2022/03/23 09:38:06;;;;;;;28.73;17.85;;;12.30;66.30;;;;;;6139605;23;20005;-81
2022/03/23 09:40:32;;;;;;;27.15;17.85;;;12.60;66.70;;;;;;6104110;23;20264;-81
2022/03/23 09:43:00;;;;;;;27.65;17.60;;;12.80;66.30;;;;;;6080083;23;20286;-81
2022/03/23 09:48:03;;;;;;;29.48;18.10;;;13.00;65.20;;;;;;6133314;23;20001;-83
2022/03/23 09:50:31;;;;;;;28.58;18.15;;;13.00;64.20;;;;;;6133296;23;20010;-82
2022/03/23 09:52:58;;;;;;;29.27;17.67;;;13.10;63.90;;;;;;6133697;23;20202;-83
2022/03/23 09:55:24;;;;;;;26.60;16.50;;;13.20;63.40;;;;;;6133363;23;20030;-83
2022/03/23 09:57:55;;;;;;;29.35;17.63;;;13.20;62.30;;;;;;6159178;23;20223;-85
2022/03/23 10:00:21;;;;;;;27.40;17.20;;;13.20;62.50;;;;;;6157637;23;20024;-83
2022/03/23 10:03:14;;;;;;;30.83;18.85;;;13.30;62.20;;;;;;6109900;23;20013;-80
2022/03/23 10:06:17;;;;;;;26.67;17.10;;;13.40;61.50;;;;;;6158296;23;20299;-82
2022/03/23 10:09:05;;;;;;;27.38;17.60;;;13.60;60.90;;;;;;6133391;23;20010;-83
2022/03/23 10:12:01;;;;;;;27.77;15.90;;;13.80;59.70;;;;;;6163545;23;20012;-81
2022/03/23 10:15:05;;;;;;;22.92;15.40;;;13.80;58.00;;;;;;6192701;23;20005;-81
2022/03/23 10:17:54;;;;;;;26.02;15.70;;;13.90;58.10;;;;;;6223627;23;20016;-84
2022/03/23 10:20:20;;;;;;;23.50;15.52;;;14.20;57.60;;;;;;6222827;23;20017;-81
2022/03/23 10:22:48;;;;;;;20.55;14.20;;;14.20;56.80;;;;;;6222856;23;20290;-81
2022/03/23 10:25:15;;;;;;;28.47;13.93;;;14.50;56.60;;;;;;6224743;23;20179;-81
2022/03/23 10:27:45;;;;;;;18.35;12.20;;;14.70;54.80;;;;;;6197670;23;20395;-81
2022/03/23 10:30:14;;;;;;;21.42;11.75;;;14.80;53.50;;;;;;6221660;23;20326;-81
2022/03/23 10:32:45;;;;;;;16.10;9.98;;;15.00;52.50;;;;;;6224785;23;20011;-84
2022/03/23 10:35:13;;;;;;;14.73;9.07;;;15.10;50.90;;;;;;6197805;23;20232;-80
2022/03/23 10:40:32;;;;;;;17.73;9.88;;;15.40;48.50;;;;;;6228386;23;20064;-82
2022/03/23 10:45:34;;;;;;;19.17;13.00;;;15.60;49.50;;;;;;6209717;23;20012;-80
2022/03/23 10:48:09;;;;;;;18.42;13.50;;;15.70;51.20;;;;;;6203100;23;20206;-80
2022/03/23 10:50:36;;;;;;;19.50;12.95;;;15.70;50.40;;;;;;6168573;23;20028;-81
2022/03/23 10:53:07;;;;;;;18.40;13.38;;;15.90;50.70;;;;;;6194818;23;20230;-81
2022/03/23 10:59:33;;;;;;;21.63;12.85;;;16.20;50.60;;;;;;6194044;23;20334;-81
2022/03/23 11:02:05;;;;;;;20.92;12.93;;;16.40;50.00;;;;;;6162006;23;20018;-82
2022/03/23 11:04:49;;;;;;;19.15;13.52;;;16.60;49.30;;;;;;6162232;23;20069;-81
2022/03/23 11:07:22;;;;;;;18.60;12.52;;;16.90;49.60;;;;;;6163796;23;20009;-81
2022/03/23 11:15:49;;;;;;;16.95;12.02;;;19.00;46.80;;;;;;6160652;23;20031;-81
2022/03/23 11:18:21;;;;;;;16.33;12.30;;;19.90;45.60;;;;;;6161995;23;20044;-80
2022/03/23 11:20:56;;;;;;;15.55;12.10;;;20.90;44.30;;;;;;6163758;23;20028;-82
2022/03/23 11:23:24;;;;;;;14.32;11.52;;;21.90;43.80;;;;;;6161538;23;20002;-79
2022/03/23 11:25:57;;;;;;;14.30;10.90;;;22.90;42.80;;;;;;6164341;23;20002;-80
2022/03/23 11:28:24;;;;;;;12.98;11.43;;;23.50;41.60;;;;;;6163995;23;20036;-82
2022/03/23 11:30:51;;;;;;;13.05;10.68;;;24.50;41.10;;;;;;6161891;23;20056;-82
2022/03/23 11:33:21;;;;;;;12.02;10.55;;;25.20;40.40;;;;;;6163303;23;19998;-80
2022/03/23 11:35:50;;;;;;;15.32;11.45;;;25.80;38.70;;;;;;6137812;23;20055;-81
2022/03/23 11:38:22;;;;;;;12.27;10.88;;;26.30;38.60;;;;;;6162438;23;20010;-82
2022/03/23 11:40:49;;;;;;;12.30;9.85;;;26.70;38.20;;;;;;6164796;23;20013;-81
2022/03/23 11:43:20;;;;;;;9.60;8.60;;;26.80;38.10;;;;;;6162842;23;20291;-81
2022/03/23 11:45:48;;;;;;;10.88;8.57;;;27.80;36.90;;;;;;6164029;23;20017;-82
2022/03/23 11:48:20;;;;;;;;;;;28.40;36.80;;;;;;6138517;23;20056;-81
2022/03/23 11:51:02;;;;;;;10.68;8.85;;;29.00;36.20;;;;;;6164199;23;19946;-81
2022/03/23 11:53:30;;;;;;;16.52;7.75;;;29.40;36.20;;;;;;6163942;23;20005;-82
2022/03/23 11:55:56;;;;;;;11.88;6.75;;;30.30;35.50;;;;;;6164606;23;20008;-83
2022/03/23 11:58:34;;;;;;;10.07;8.63;;;30.70;36.10;;;;;;6165388;23;20228;-82
2022/03/23 12:01:11;;;;;;;9.23;8.23;;;31.20;35.00;;;;;;6164038;23;20013;-83
2022/03/23 12:03:41;;;;;;;;;;;31.30;34.90;;;;;;6165406;23;20034;-81
2022/03/23 12:06:34;;;;;;;9.98;7.82;;;31.40;34.50;;;;;;6164480;23;19923;-83
2022/03/23 12:09:00;;;;;;;10.15;8.05;;;32.10;34.50;;;;;;6189656;23;20013;-82
2022/03/23 12:11:44;;;;;;;9.00;8.10;;;32.00;33.80;;;;;;6165282;23;20001;-82
2022/03/23 12:14:24;;;;;;;8.48;7.65;;;32.00;33.50;;;;;;6164124;23;20028;-83
2022/03/23 12:16:50;;;;;;;8.55;6.80;;;32.40;33.80;;;;;;6164730;23;20010;-82
2022/03/23 12:19:23;;;;;;;11.90;7.68;;;33.30;33.50;;;;;;6165017;23;20040;-80
2022/03/23 12:21:58;;;;;;;9.20;7.15;;;33.20;32.20;;;;;;6165473;23;20235;-82
2022/03/23 12:24:35;;;;;;;10.35;7.30;;;34.00;32.50;;;;;;6164837;23;20004;-83
2022/03/23 12:27:13;;;;;;;9.57;7.30;;;34.30;32.80;;;;;;6163980;23;20069;-81
2022/03/23 12:29:48;;;;;;;18.35;7.75;;;34.20;33.30;;;;;;6163961;23;20354;-80
2022/03/23 12:32:15;;;;;;;8.52;7.60;;;34.90;32.80;;;;;;6165191;23;20013;-81
2022/03/23 12:34:42;;;;;;;10.27;7.35;;;34.40;32.40;;;;;;6163968;23;20169;-81
2022/03/23 12:37:14;;;;;;;9.23;7.50;;;34.50;32.60;;;;;;6163110;23;20064;-80
2022/03/23 12:39:45;;;;;;;9.88;7.07;;;34.70;33.00;;;;;;6163175;23;20229;-81
2022/03/23 12:42:18;;;;;;;9.00;7.60;;;35.00;32.30;;;;;;6163160;23;20204;-80
2022/03/23 12:44:56;;;;;;;10.95;7.55;;;35.00;32.50;;;;;;6162791;23;20006;-82
2022/03/23 12:47:27;;;;;;;8.55;7.50;;;34.70;32.00;;;;;;6161767;23;20017;-80
2022/03/23 12:58:30;;;;;;;8.95;8.05;;;36.40;32.20;;;;;;6162367;23;20068;-81
2022/03/23 13:01:10;;;;;;;8.45;7.47;;;35.80;31.70;;;;;;6162229;23;20338;-83
2022/03/23 13:03:41;;;;;;;11.32;8.10;;;35.50;31.80;;;;;;6138046;23;20013;-81
2022/03/23 13:06:09;;;;;;;7.95;7.15;;;35.90;31.80;;;;;;6163540;23;20010;-82
2022/03/23 13:08:46;;;;;;;8.48;7.53;;;36.30;32.00;;;;;;6164027;23;20009;-82
2022/03/23 13:11:12;;;;;;;8.90;7.03;;;37.10;31.40;;;;;;6165750;23;20080;-80
2022/03/23 13:13:39;;;;;;;8.70;7.38;;;37.70;31.70;;;;;;6163720;23;20013;-83
2022/03/23 13:16:12;;;;;;;9.00;7.85;;;37.70;31.60;;;;;;6163962;23;20338;-82
2022/03/23 13:18:39;;;;;;;9.40;7.20;;;37.20;31.50;;;;;;6163513;23;20002;-81
2022/03/23 13:21:16;;;;;;;7.85;7.05;;;37.40;31.50;;;;;;6165306;23;20002;-80
2022/03/23 13:23:44;;;;;;;8.95;8.05;;;37.90;31.40;;;;;;6139673;23;20015;-80
2022/03/23 13:26:11;;;;;;;;;;;38.40;31.00;;;;;;6139479;23;20013;-81
2022/03/23 13:28:47;;;;;;;9.25;8.35;;;38.10;30.80;;;;;;6164370;23;20162;-83
2022/03/23 13:31:50;;;;;;;8.30;7.50;;;38.90;30.70;;;;;;6164459;23;20032;-81
2022/03/23 13:34:37;;;;;;;8.60;7.60;;;38.70;30.80;;;;;;6165470;23;20066;-83
2022/03/23 13:37:03;;;;;;;;;;;39.00;30.90;;;;;;6139915;23;20322;-84
2022/03/23 13:39:51;;;;;;;9.18;7.68;;;38.40;30.90;;;;;;6163687;23;19928;-83
2022/03/23 13:45:09;;;;;;;8.90;7.35;;;38.70;30.80;;;;;;6187315;23;20017;-83
2022/03/23 13:51:39;;;;;;;11.00;7.60;;;39.30;31.80;;;;;;6126543;23;20190;-84
2022/03/23 13:54:07;;;;;;;8.10;7.30;;;39.40;30.70;;;;;;6164644;23;20041;-82
2022/03/23 14:03:19;;;;;;;7.75;6.95;;;38.70;30.40;;;;;;6126400;23;20395;-81
2022/03/23 14:06:06;;;;;;;7.88;7.07;;;38.90;31.30;;;;;;6143469;23;20198;-80
2022/03/23 14:08:38;;;;;;;8.07;7.35;;;39.80;30.30;;;;;;6168695;23;20043;-83
2022/03/23 14:11:11;;;;;;;9.80;7.85;;;39.60;30.10;;;;;;6194654;23;20009;-85
2022/03/23 14:17:28;;;;;;;8.13;7.32;;;40.00;30.50;;;;;;6194186;23;20016;-83
2022/03/23 14:20:05;;;;;;;7.95;7.00;;;40.20;30.30;;;;;;6170141;23;20005;-85
2022/03/23 14:22:32;;;;;;;8.40;7.50;;;40.50;30.30;;;;;;6170379;23;20013;-84
2022/03/23 14:24:59;;;;;;;8.20;7.05;;;40.40;30.50;;;;;;6196488;23;20001;-83
2022/03/23 14:27:39;;;;;;;7.80;7.00;;;39.70;30.60;;;;;;6168040;23;20008;-84
2022/03/23 14:30:10;;;;;;;8.10;7.22;;;40.20;30.10;;;;;;6145569;23;20004;-84
2022/03/23 14:33:12;;;;;;;7.75;6.85;;;40.10;30.10;;;;;;6169088;23;20008;-83
2022/03/23 14:35:39;;;;;;;9.63;7.25;;;40.80;30.00;;;;;;6133974;23;20002;-82
2022/03/23 14:38:16;;;;;;;8.75;7.82;;;41.50;30.20;;;;;;6133626;23;20013;-82
2022/03/23 14:40:50;;;;;;;7.20;6.22;;;40.80;30.10;;;;;;6108670;23;20037;-82
2022/03/23 14:47:46;;;;;;;9.90;7.07;;;40.50;30.50;;;;;;6148932;23;20018;-81
2022/03/23 14:50:12;;;;;;;8.20;7.00;;;39.80;30.10;;;;;;6125876;23;20037;-82
2022/03/23 14:52:37;;;;;;;9.20;7.53;;;39.10;30.10;;;;;;6101155;23;19997;-82
2022/03/23 14:55:05;;;;;;;8.25;7.00;;;39.10;30.40;;;;;;6120814;23;20044;-82
2022/03/23 14:57:30;;;;;;;10.70;7.68;;;38.80;30.20;;;;;;6111426;23;20005;-83
2022/03/23 14:59:56;;;;;;;8.57;7.50;;;38.60;30.20;;;;;;6110861;23;20032;-82
2022/03/23 15:02:22;;;;;;;8.45;7.38;;;39.20;30.90;;;;;;6109605;23;20020;-81
2022/03/23 15:04:48;;;;;;;9.60;7.75;;;39.50;30.30;;;;;;6139272;23;20009;-82
2022/03/23 15:15:42;;;;;;;8.63;7.07;;;39.10;30.00;;;;;;6194169;23;20061;-82
2022/03/23 15:18:09;;;;;;;7.97;7.18;;;38.80;30.00;;;;;;6219578;23;20001;-83
2022/03/23 15:20:37;;;;;;;9.77;6.80;;;39.40;30.00;;;;;;6195838;23;20310;-84
2022/03/23 15:23:07;;;;;;;8.30;7.50;;;39.50;30.10;;;;;;6221562;23;20005;-83
2022/03/23 15:25:35;;;;;;;10.05;6.90;;;39.10;29.80;;;;;;6220525;23;20013;-82
2022/03/23 15:28:03;;;;;;;8.98;6.57;;;38.40;30.40;;;;;;6221315;23;20008;-82
2022/03/23 15:30:29;;;;;;;;;;;38.80;30.00;;;;;;6146607;23;20009;-84
2022/03/23 15:32:55;;;;;;;7.68;6.90;;;38.50;29.90;;;;;;6170903;23;19930;-85
2022/03/23 15:35:22;;;;;;;7.80;7.00;;;38.20;30.10;;;;;;6220283;23;20294;-85
2022/03/23 15:37:52;;;;;;;9.82;6.88;;;38.30;30.00;;;;;;6195683;23;20321;-84
2022/03/23 15:40:19;;;;;;;10.48;7.07;;;38.60;29.90;;;;;;6170258;23;20001;-81
2022/03/23 15:43:04;;;;;;;7.80;6.88;;;38.30;30.00;;;;;;6219752;23;19997;-82
2022/03/23 15:45:38;;;;;;;9.52;7.05;;;38.10;29.70;;;;;;6169640;23;20017;-83
2022/03/23 15:48:06;;;;;;;12.05;6.97;;;37.60;29.80;;;;;;6194555;23;20114;-84
2022/03/23 15:54:26;;;;;;;9.93;7.65;;;37.60;29.90;;;;;;6196015;23;20060;-85
2022/03/23 15:56:52;;;;;;;8.68;6.93;;;36.80;30.00;;;;;;6195874;23;20001;-83
2022/03/23 15:59:18;;;;;;;8.20;7.10;;;37.20;30.20;;;;;;6221093;23;20047;-83
2022/03/23 16:01:56;;;;;;;10.45;7.13;;;37.30;29.90;;;;;;6169510;23;20017;-84
2022/03/23 16:04:49;;;;;;;8.48;7.22;;;37.20;29.90;;;;;;6196827;23;20020;-83
2022/03/23 16:07:17;;;;;;;9.23;7.45;;;36.90;30.30;;;;;;6196138;23;20001;-84
2022/03/23 16:09:42;;;;;;;10.00;7.85;;;35.90;30.30;;;;;;6195592;23;20350;-85
2022/03/23 16:15:25;;;;;;;10.02;7.47;;;35.30;30.80;;;;;;6167364;23;20011;-83
2022/03/23 16:17:52;;;;;;;8.75;7.38;;;35.60;30.70;;;;;;6191036;23;20119;-82
2022/03/23 16:20:19;;;;;;;7.65;6.78;;;35.40;31.20;;;;;;6144479;23;20010;-81
2022/03/23 16:22:46;;;;;;;8.30;7.33;;;35.90;31.50;;;;;;6168599;23;20009;-82
2022/03/23 16:25:13;;;;;;;8.05;7.10;;;36.10;31.10;;;;;;6142161;23;20227;-83
2022/03/23 16:27:41;;;;;;;9.10;7.22;;;35.50;30.30;;;;;;6164695;23;20013;-82
2022/03/23 16:30:08;;;;;;;8.60;7.43;;;34.80;30.80;;;;;;6164571;23;20009;-86
2022/03/23 16:35:51;;;;;;;8.07;7.13;;;34.30;31.30;;;;;;6192098;23;20013;-85
2022/03/23 16:38:19;;;;;;;9.63;7.53;;;33.80;31.00;;;;;;6192048;23;20001;-84
2022/03/23 16:40:44;;;;;;;8.90;7.65;;;32.80;31.30;;;;;;6164779;23;20009;-82
2022/03/23 16:43:26;;;;;;;8.88;7.55;;;31.80;31.60;;;;;;6165677;23;20000;-83
2022/03/23 16:53:08;;;;;;;10.43;7.47;;;27.30;34.30;;;;;;6134222;23;20025;-82
2022/03/23 16:56:00;;;;;;;9.23;7.78;;;25.80;35.90;;;;;;6110141;23;20042;-83
2022/03/23 16:58:52;;;;;;;10.98;7.85;;;24.90;36.50;;;;;;6112769;23;20037;-80
2022/03/23 17:01:59;;;;;;;10.73;8.23;;;24.30;37.60;;;;;;6110813;23;20061;-81
2022/03/23 17:13:37;;;;;;;9.82;7.68;;;22.80;38.80;;;;;;6076154;23;20009;-85
2022/03/23 17:16:03;;;;;;;11.25;8.00;;;22.30;39.70;;;;;;6074769;23;20014;-83
2022/03/23 17:21:48;;;;;;;10.55;7.85;;;21.70;39.90;;;;;;6075716;23;20013;-82
2022/03/23 17:24:14;;;;;;;11.35;8.07;;;21.40;40.80;;;;;;6075379;23;20010;-85
2022/03/23 17:26:58;;;;;;;11.82;7.97;;;21.20;40.60;;;;;;6051472;23;20011;-82
2022/03/23 17:29:50;;;;;;;13.63;8.35;;;20.90;40.40;;;;;;6079706;23;20058;-83
2022/03/23 17:32:17;;;;;;;11.52;7.75;;;20.70;40.40;;;;;;6075439;23;20018;-82
2022/03/23 17:34:46;;;;;;;11.07;8.10;;;20.40;40.70;;;;;;6076039;23;20007;-82
2022/03/23 17:40:43;;;;;;;15.68;8.85;;;19.70;40.90;;;;;;6076226;23;20295;-83
2022/03/23 17:43:09;;;;;;;16.52;7.97;;;19.40;41.00;;;;;;6100263;23;20030;-81
2022/03/23 17:45:35;;;;;;;12.02;8.52;;;19.10;41.70;;;;;;6143832;23;20176;-84
2022/03/23 17:48:02;;;;;;;11.00;8.48;;;18.80;41.70;;;;;;6137311;23;20231;-81
2022/03/23 17:54:22;;;;;;;10.93;7.93;;;18.50;42.90;;;;;;6165155;23;20029;-83
2022/03/23 17:56:48;;;;;;;15.25;9.80;;;18.30;42.30;;;;;;6172602;23;20001;-83
2022/03/23 17:59:14;;;;;;;13.48;9.32;;;18.00;42.30;;;;;;6147668;23;20016;-83
2022/03/23 18:01:40;;;;;;;14.85;9.13;;;17.80;43.20;;;;;;6164045;23;20025;-82
2022/03/23 18:04:07;;;;;;;11.20;8.65;;;17.40;43.70;;;;;;6167541;23;20009;-81
2022/03/23 18:06:35;;;;;;;14.82;9.35;;;17.20;44.20;;;;;;6143090;23;20096;-80
2022/03/23 18:09:02;;;;;;;13.68;8.55;;;17.00;44.30;;;;;;6166022;23;20021;-80
2022/03/23 18:11:31;;;;;;;18.65;9.57;;;16.80;44.40;;;;;;6164966;23;20367;-82
2022/03/23 18:14:00;;;;;;;18.35;10.52;;;16.60;44.80;;;;;;6163346;23;20001;-83
2022/03/23 18:16:41;;;;;;;15.38;9.65;;;16.40;44.90;;;;;;6166733;23;20017;-80
2022/03/23 18:22:24;;;;;;;16.25;11.40;;;16.30;46.60;;;;;;6164508;23;20049;-81
2022/03/23 18:24:50;;;;;;;19.45;13.60;;;16.20;47.50;;;;;;6164400;23;19998;-84
2022/03/23 18:27:19;;;;;;;21.85;14.32;;;16.10;48.20;;;;;;6140917;23;20029;-82
2022/03/23 18:29:45;;;;;;;16.40;10.70;;;16.10;48.40;;;;;;6163022;23;20006;-82
2022/03/23 18:32:11;;;;;;;15.00;10.65;;;16.00;48.50;;;;;;6137362;23;20428;-79
2022/03/23 18:34:45;;;;;;;15.68;9.95;;;15.90;48.80;;;;;;6162031;23;20008;-83
2022/03/23 18:37:12;;;;;;;14.63;10.25;;;15.80;49.00;;;;;;6162751;23;20004;-83
2022/03/23 18:39:38;;;;;;;15.10;9.95;;;15.70;49.20;;;;;;6137621;23;20064;-82
2022/03/23 18:45:44;;;;;;;15.50;10.35;;;15.70;49.30;;;;;;6055955;23;20033;-80
2022/03/23 18:51:27;;;;;;;18.33;10.70;;;15.40;49.30;;;;;;6179027;23;20010;-81
2022/03/23 18:54:22;;;;;;;15.95;10.77;;;15.20;49.90;;;;;;6178847;23;20009;-82
2022/03/23 18:56:48;;;;;;;18.02;10.82;;;15.00;50.30;;;;;;6138955;23;20191;-79
2022/03/23 18:59:14;;;;;;;19.85;11.48;;;14.80;50.40;;;;;;6165396;23;20005;-83
2022/03/23 19:01:41;;;;;;;17.98;11.38;;;14.60;50.90;;;;;;6172051;23;20041;-81
2022/03/23 19:04:07;;;;;;;17.10;11.30;;;14.40;51.10;;;;;;6164060;23;20014;-83
2022/03/23 19:06:34;;;;;;;17.90;11.23;;;14.20;51.30;;;;;;6138648;23;20040;-82
2022/03/23 19:08:59;;;;;;;22.25;11.82;;;13.90;51.70;;;;;;6138457;23;20004;-84
2022/03/23 19:11:25;;;;;;;18.08;10.95;;;13.70;52.30;;;;;;6139146;23;20009;-81
2022/03/23 19:14:32;;;;;;;21.25;11.63;;;13.60;52.80;;;;;;6138612;23;20009;-82
2022/03/23 19:21:09;;;;;;;18.33;11.60;;;13.40;53.20;;;;;;6139424;23;20013;-84
2022/03/23 19:23:35;;;;;;;18.85;11.30;;;13.50;53.40;;;;;;6138907;23;20345;-82
2022/03/23 19:26:01;;;;;;;19.50;11.73;;;13.40;53.60;;;;;;6139492;23;19998;-82
2022/03/23 19:28:32;;;;;;;18.13;11.75;;;13.30;53.30;;;;;;6139296;23;20006;-83
2022/03/23 19:30:59;;;;;;;17.73;11.02;;;13.20;53.20;;;;;;6138127;23;20017;-82
2022/03/23 19:33:28;;;;;;;16.65;10.27;;;13.20;53.80;;;;;;6138829;23;20012;-82
2022/03/23 19:35:56;;;;;;;17.65;11.57;;;13.20;53.90;;;;;;6138449;23;20041;-84
2022/03/23 19:38:24;;;;;;;20.88;11.40;;;13.10;53.60;;;;;;6139132;23;20350;-84
2022/03/23 19:41:01;;;;;;;18.15;11.23;;;13.00;53.80;;;;;;6138796;23;20240;-85
2022/03/23 19:53:05;;;;;;;17.05;10.75;;;12.90;54.30;;;;;;6161832;23;20055;-84
2022/03/23 19:55:31;;;;;;;16.88;11.25;;;12.80;54.60;;;;;;6193588;23;20013;-82
2022/03/23 19:57:57;;;;;;;20.25;12.40;;;12.80;54.70;;;;;;6192708;23;20047;-81
2022/03/23 20:00:49;;;;;;;21.15;12.25;;;12.70;55.60;;;;;;6194719;23;20305;-80
2022/03/23 20:03:15;;;;;;;17.55;11.80;;;12.50;55.20;;;;;;6195132;23;20031;-81
2022/03/23 20:05:46;;;;;;;17.33;11.30;;;12.40;55.60;;;;;;6195723;23;19993;-81
2022/03/23 20:08:12;;;;;;;18.10;11.65;;;12.30;55.80;;;;;;6168827;23;20013;-80
2022/03/23 20:10:38;;;;;;;19.58;12.15;;;12.30;55.70;;;;;;6170649;23;20151;-83
2022/03/23 20:13:08;;;;;;;21.52;13.90;;;12.20;56.00;;;;;;6172139;23;20199;-82
2022/03/23 20:15:35;;;;;;;21.50;12.75;;;12.10;56.20;;;;;;6168142;23;20005;-82